sensor_id;sensor_type;location;lat;lon;timestamp;temperature;humidity
27128;DHT22;14660;49.008;8.390;2022-08-21T00:01:14;21.00;99.90
27128;DHT22;14660;49.008;8.390;2022-08-21T00:03:42;20.90;99.90
27128;DHT22;14660;49.008;8.390;2022-08-21T00:06:09;20.90;99.90
27128;DHT22;14660;49.008;8.390;2022-08-21T00:08:36;20.90;99.90
27128;DHT22;14660;49.008;8.390;2022-08-21T00:11:05;20.90;99.90
27128;DHT22;14660;49.008;8.390;2022-08-21T00:13:33;20.90;99.90
27128;DHT22;14660;49.008;8.390;2022-08-21T00:16:00;20.80;99.90
27128;DHT22;14660;49.008;8.390;2022-08-21T00:18:27;20.80;99.90
27128;DHT22;14660;49.008;8.390;2022-08-21T00:20:54;20.70;99.90
27128;DHT22;14660;49.008;8.390;2022-08-21T00:23:21;20.70;99.90
27128;DHT22;14660;49.008;8.390;2022-08-21T00:25:49;20.60;99.90
27128;DHT22;14660;49.008;8.390;2022-08-21T00:28:16;20.60;99.90
27128;DHT22;14660;49.008;8.390;2022-08-21T00:30:45;20.60;99.90
27128;DHT22;14660;49.008;8.390;2022-08-21T00:33:11;20.60;99.90
27128;DHT22;14660;49.008;8.390;2022-08-21T00:35:41;20.50;99.90
27128;DHT22;14660;49.008;8.390;2022-08-21T00:38:09;20.50;99.90
27128;DHT22;14660;49.008;8.390;2022-08-21T00:40:40;20.50;99.90
27128;DHT22;14660;49.008;8.390;2022-08-21T00:43:10;20.50;99.90
27128;DHT22;14660;49.008;8.390;2022-08-21T00:45:38;20.50;99.90
27128;DHT22;14660;49.008;8.390;2022-08-21T00:48:05;20.50;99.90
27128;DHT22;14660;49.008;8.390;2022-08-21T00:50:35;20.50;99.90
27128;DHT22;14660;49.008;8.390;2022-08-21T00:53:06;20.40;99.90
27128;DHT22;14660;49.008;8.390;2022-08-21T00:55:34;20.40;99.90
27128;DHT22;14660;49.008;8.390;2022-08-21T00:58:04;20.40;99.90
27128;DHT22;14660;49.008;8.390;2022-08-21T01:00:34;20.30;99.90
27128;DHT22;14660;49.008;8.390;2022-08-21T01:03:07;20.30;99.90
27128;DHT22;14660;49.008;8.390;2022-08-21T01:05:33;20.30;99.90
27128;DHT22;14660;49.008;8.390;2022-08-21T01:08:00;20.20;99.90
27128;DHT22;14660;49.008;8.390;2022-08-21T01:10:28;20.20;99.90
27128;DHT22;14660;49.008;8.390;2022-08-21T01:12:56;20.20;99.90
27128;DHT22;14660;49.008;8.390;2022-08-21T01:15:30;20.20;99.90
27128;DHT22;14660;49.008;8.390;2022-08-21T01:18:00;20.20;99.90
27128;DHT22;14660;49.008;8.390;2022-08-21T01:20:27;20.20;99.90
27128;DHT22;14660;49.008;8.390;2022-08-21T01:22:54;20.10;99.90
27128;DHT22;14660;49.008;8.390;2022-08-21T01:25:21;20.10;99.90
27128;DHT22;14660;49.008;8.390;2022-08-21T01:27:49;20.10;99.90
27128;DHT22;14660;49.008;8.390;2022-08-21T01:30:33;20.00;99.90
27128;DHT22;14660;49.008;8.390;2022-08-21T01:32:59;20.00;99.90
27128;DHT22;14660;49.008;8.390;2022-08-21T01:35:27;20.00;99.90
27128;DHT22;14660;49.008;8.390;2022-08-21T01:37:54;19.90;99.90
27128;DHT22;14660;49.008;8.390;2022-08-21T01:40:20;20.00;99.90
27128;DHT22;14660;49.008;8.390;2022-08-21T01:42:48;19.90;99.90
27128;DHT22;14660;49.008;8.390;2022-08-21T01:45:15;19.90;99.90
27128;DHT22;14660;49.008;8.390;2022-08-21T01:47:44;19.90;99.90
27128;DHT22;14660;49.008;8.390;2022-08-21T01:50:14;19.80;99.90
27128;DHT22;14660;49.008;8.390;2022-08-21T01:52:41;19.80;99.90
27128;DHT22;14660;49.008;8.390;2022-08-21T01:55:09;19.80;99.90
27128;DHT22;14660;49.008;8.390;2022-08-21T01:57:36;19.70;99.90
27128;DHT22;14660;49.008;8.390;2022-08-21T02:00:09;19.70;99.90
27128;DHT22;14660;49.008;8.390;2022-08-21T02:02:38;19.70;99.90
27128;DHT22;14660;49.008;8.390;2022-08-21T02:05:05;19.70;99.90
27128;DHT22;14660;49.008;8.390;2022-08-21T02:07:52;19.60;99.90
27128;DHT22;14660;49.008;8.390;2022-08-21T02:10:24;19.70;99.90
27128;DHT22;14660;49.008;8.390;2022-08-21T02:12:53;19.60;99.90
27128;DHT22;14660;49.008;8.390;2022-08-21T02:15:20;19.50;99.90
27128;DHT22;14660;49.008;8.390;2022-08-21T02:17:50;19.50;99.90
27128;DHT22;14660;49.008;8.390;2022-08-21T02:20:23;19.50;99.90
27128;DHT22;14660;49.008;8.390;2022-08-21T02:22:50;19.50;99.90
27128;DHT22;14660;49.008;8.390;2022-08-21T02:25:18;19.40;99.90
27128;DHT22;14660;49.008;8.390;2022-08-21T02:27:46;19.40;99.90
27128;DHT22;14660;49.008;8.390;2022-08-21T02:30:21;19.40;99.90
27128;DHT22;14660;49.008;8.390;2022-08-21T02:32:49;19.40;99.90
27128;DHT22;14660;49.008;8.390;2022-08-21T02:35:16;19.40;99.90
27128;DHT22;14660;49.008;8.390;2022-08-21T02:37:51;19.40;99.90
27128;DHT22;14660;49.008;8.390;2022-08-21T02:40:21;19.30;99.90
27128;DHT22;14660;49.008;8.390;2022-08-21T02:42:48;19.30;99.90
27128;DHT22;14660;49.008;8.390;2022-08-21T02:45:16;19.30;99.90
27128;DHT22;14660;49.008;8.390;2022-08-21T02:47:52;19.20;99.90
27128;DHT22;14660;49.008;8.390;2022-08-21T02:50:32;19.20;99.90
27128;DHT22;14660;49.008;8.390;2022-08-21T02:52:59;19.20;99.90
27128;DHT22;14660;49.008;8.390;2022-08-21T02:55:29;19.20;99.90
27128;DHT22;14660;49.008;8.390;2022-08-21T02:57:57;19.20;99.90
27128;DHT22;14660;49.008;8.390;2022-08-21T03:00:26;19.20;99.90
27128;DHT22;14660;49.008;8.390;2022-08-21T03:02:54;19.20;99.90
27128;DHT22;14660;49.008;8.390;2022-08-21T03:05:23;19.20;99.90
27128;DHT22;14660;49.008;8.390;2022-08-21T03:07:50;19.10;99.90
27128;DHT22;14660;49.008;8.390;2022-08-21T03:10:20;19.10;99.90
27128;DHT22;14660;49.008;8.390;2022-08-21T03:12:47;19.10;99.90
27128;DHT22;14660;49.008;8.390;2022-08-21T03:15:16;19.10;99.90
27128;DHT22;14660;49.008;8.390;2022-08-21T03:17:44;19.10;99.90
27128;DHT22;14660;49.008;8.390;2022-08-21T03:20:13;19.10;99.90
27128;DHT22;14660;49.008;8.390;2022-08-21T03:22:41;19.00;99.90
27128;DHT22;14660;49.008;8.390;2022-08-21T03:25:09;19.00;99.90
27128;DHT22;14660;49.008;8.390;2022-08-21T03:27:37;19.00;99.90
27128;DHT22;14660;49.008;8.390;2022-08-21T03:30:06;19.00;99.90
27128;DHT22;14660;49.008;8.390;2022-08-21T03:32:33;19.00;99.90
27128;DHT22;14660;49.008;8.390;2022-08-21T03:35:00;19.00;99.90
27128;DHT22;14660;49.008;8.390;2022-08-21T03:37:27;19.00;99.90
27128;DHT22;14660;49.008;8.390;2022-08-21T03:39:55;18.90;99.90
27128;DHT22;14660;49.008;8.390;2022-08-21T03:42:22;18.90;99.90
27128;DHT22;14660;49.008;8.390;2022-08-21T03:44:50;18.90;99.90
27128;DHT22;14660;49.008;8.390;2022-08-21T03:47:17;18.90;99.90
27128;DHT22;14660;49.008;8.390;2022-08-21T03:49:44;18.80;99.90
27128;DHT22;14660;49.008;8.390;2022-08-21T03:52:11;18.80;99.90
27128;DHT22;14660;49.008;8.390;2022-08-21T03:54:38;18.80;99.90
27128;DHT22;14660;49.008;8.390;2022-08-21T03:57:08;18.80;99.90
27128;DHT22;14660;49.008;8.390;2022-08-21T03:59:36;18.70;99.90
27128;DHT22;14660;49.008;8.390;2022-08-21T04:02:05;18.70;99.90
27128;DHT22;14660;49.008;8.390;2022-08-21T04:04:33;18.70;99.90
27128;DHT22;14660;49.008;8.390;2022-08-21T04:07:00;18.70;99.90
27128;DHT22;14660;49.008;8.390;2022-08-21T04:09:27;18.60;99.90
27128;DHT22;14660;49.008;8.390;2022-08-21T04:11:54;18.60;99.90
27128;DHT22;14660;49.008;8.390;2022-08-21T04:14:21;18.50;99.90
27128;DHT22;14660;49.008;8.390;2022-08-21T04:16:49;18.50;99.90
27128;DHT22;14660;49.008;8.390;2022-08-21T04:19:16;18.50;99.90
27128;DHT22;14660;49.008;8.390;2022-08-21T04:21:43;18.50;99.90
27128;DHT22;14660;49.008;8.390;2022-08-21T04:24:10;18.40;99.90
27128;DHT22;14660;49.008;8.390;2022-08-21T04:26:38;18.40;99.90
27128;DHT22;14660;49.008;8.390;2022-08-21T04:29:06;18.40;99.90
27128;DHT22;14660;49.008;8.390;2022-08-21T04:31:34;18.40;99.90
27128;DHT22;14660;49.008;8.390;2022-08-21T04:34:04;18.40;99.90
27128;DHT22;14660;49.008;8.390;2022-08-21T04:36:32;18.40;99.90
27128;DHT22;14660;49.008;8.390;2022-08-21T04:38:59;18.40;99.90
27128;DHT22;14660;49.008;8.390;2022-08-21T04:41:26;18.40;99.90
27128;DHT22;14660;49.008;8.390;2022-08-21T04:43:54;18.40;99.90
27128;DHT22;14660;49.008;8.390;2022-08-21T04:46:22;18.40;99.90
27128;DHT22;14660;49.008;8.390;2022-08-21T04:48:49;18.40;99.90
27128;DHT22;14660;49.008;8.390;2022-08-21T04:51:36;18.40;99.90
27128;DHT22;14660;49.008;8.390;2022-08-21T04:54:17;18.50;99.90
27128;DHT22;14660;49.008;8.390;2022-08-21T04:56:52;18.50;99.90
27128;DHT22;14660;49.008;8.390;2022-08-21T04:59:26;18.50;99.90
27128;DHT22;14660;49.008;8.390;2022-08-21T05:01:54;18.50;99.90
27128;DHT22;14660;49.008;8.390;2022-08-21T05:04:26;18.40;99.90
27128;DHT22;14660;49.008;8.390;2022-08-21T05:06:57;18.50;99.90
27128;DHT22;14660;49.008;8.390;2022-08-21T05:09:25;18.50;99.90
27128;DHT22;14660;49.008;8.390;2022-08-21T05:11:52;18.50;99.90
27128;DHT22;14660;49.008;8.390;2022-08-21T05:14:19;18.50;99.90
27128;DHT22;14660;49.008;8.390;2022-08-21T05:16:46;18.50;99.90
27128;DHT22;14660;49.008;8.390;2022-08-21T05:19:13;18.50;99.90
27128;DHT22;14660;49.008;8.390;2022-08-21T05:21:42;18.50;99.90
27128;DHT22;14660;49.008;8.390;2022-08-21T05:24:10;18.60;99.90
27128;DHT22;14660;49.008;8.390;2022-08-21T05:26:38;18.70;99.90
27128;DHT22;14660;49.008;8.390;2022-08-21T05:29:05;18.70;99.90
27128;DHT22;14660;49.008;8.390;2022-08-21T05:31:33;18.70;99.90
27128;DHT22;14660;49.008;8.390;2022-08-21T05:34:00;18.90;99.90
27128;DHT22;14660;49.008;8.390;2022-08-21T05:36:27;18.90;99.90
27128;DHT22;14660;49.008;8.390;2022-08-21T05:38:54;19.10;99.90
27128;DHT22;14660;49.008;8.390;2022-08-21T05:41:21;19.20;99.90
27128;DHT22;14660;49.008;8.390;2022-08-21T05:43:47;19.30;99.90
27128;DHT22;14660;49.008;8.390;2022-08-21T05:46:15;19.40;99.90
27128;DHT22;14660;49.008;8.390;2022-08-21T05:48:42;19.50;99.90
27128;DHT22;14660;49.008;8.390;2022-08-21T05:51:14;19.70;99.90
27128;DHT22;14660;49.008;8.390;2022-08-21T05:53:41;19.80;99.90
27128;DHT22;14660;49.008;8.390;2022-08-21T05:56:09;20.00;99.90
27128;DHT22;14660;49.008;8.390;2022-08-21T05:58:37;20.10;99.90
27128;DHT22;14660;49.008;8.390;2022-08-21T06:01:03;20.20;99.90
27128;DHT22;14660;49.008;8.390;2022-08-21T06:03:41;20.40;99.90
27128;DHT22;14660;49.008;8.390;2022-08-21T06:06:09;20.50;99.90
27128;DHT22;14660;49.008;8.390;2022-08-21T06:08:36;20.60;99.90
27128;DHT22;14660;49.008;8.390;2022-08-21T06:11:04;20.80;99.90
27128;DHT22;14660;49.008;8.390;2022-08-21T06:13:31;20.80;99.90
27128;DHT22;14660;49.008;8.390;2022-08-21T06:16:13;20.90;99.90
27128;DHT22;14660;49.008;8.390;2022-08-21T06:18:40;21.00;99.90
27128;DHT22;14660;49.008;8.390;2022-08-21T06:21:07;21.10;99.90
27128;DHT22;14660;49.008;8.390;2022-08-21T06:23:35;21.10;99.90
27128;DHT22;14660;49.008;8.390;2022-08-21T06:26:03;21.20;99.90
27128;DHT22;14660;49.008;8.390;2022-08-21T06:28:32;21.30;99.90
27128;DHT22;14660;49.008;8.390;2022-08-21T06:30:59;21.30;99.90
27128;DHT22;14660;49.008;8.390;2022-08-21T06:33:26;21.40;99.90
27128;DHT22;14660;49.008;8.390;2022-08-21T06:35:53;21.50;99.90
27128;DHT22;14660;49.008;8.390;2022-08-21T06:38:20;21.60;99.90
27128;DHT22;14660;49.008;8.390;2022-08-21T06:40:48;21.60;99.90
27128;DHT22;14660;49.008;8.390;2022-08-21T06:43:16;21.70;99.90
27128;DHT22;14660;49.008;8.390;2022-08-21T06:45:44;21.90;99.90
27128;DHT22;14660;49.008;8.390;2022-08-21T06:48:11;21.90;99.90
27128;DHT22;14660;49.008;8.390;2022-08-21T06:50:38;22.00;99.90
27128;DHT22;14660;49.008;8.390;2022-08-21T06:53:09;22.00;99.90
27128;DHT22;14660;49.008;8.390;2022-08-21T06:55:37;22.10;99.90
27128;DHT22;14660;49.008;8.390;2022-08-21T06:58:05;22.20;99.90
27128;DHT22;14660;49.008;8.390;2022-08-21T07:00:33;22.20;99.90
27128;DHT22;14660;49.008;8.390;2022-08-21T07:03:01;22.30;99.90
27128;DHT22;14660;49.008;8.390;2022-08-21T07:05:29;22.40;99.90
27128;DHT22;14660;49.008;8.390;2022-08-21T07:07:57;22.50;99.90
27128;DHT22;14660;49.008;8.390;2022-08-21T07:10:27;22.50;99.90
27128;DHT22;14660;49.008;8.390;2022-08-21T07:12:54;22.60;99.90
27128;DHT22;14660;49.008;8.390;2022-08-21T07:15:21;22.60;99.90
27128;DHT22;14660;49.008;8.390;2022-08-21T07:17:48;22.70;99.90
27128;DHT22;14660;49.008;8.390;2022-08-21T07:20:15;22.80;99.90
27128;DHT22;14660;49.008;8.390;2022-08-21T07:22:42;22.80;99.90
27128;DHT22;14660;49.008;8.390;2022-08-21T07:25:09;22.90;99.90
27128;DHT22;14660;49.008;8.390;2022-08-21T07:27:36;23.00;99.90
27128;DHT22;14660;49.008;8.390;2022-08-21T07:30:04;23.10;99.90
27128;DHT22;14660;49.008;8.390;2022-08-21T07:32:31;23.10;99.90
27128;DHT22;14660;49.008;8.390;2022-08-21T07:34:58;23.20;99.90
27128;DHT22;14660;49.008;8.390;2022-08-21T07:37:25;23.30;99.90
27128;DHT22;14660;49.008;8.390;2022-08-21T07:39:53;23.40;99.90
27128;DHT22;14660;49.008;8.390;2022-08-21T07:42:20;23.40;99.90
27128;DHT22;14660;49.008;8.390;2022-08-21T07:44:48;23.50;99.90
27128;DHT22;14660;49.008;8.390;2022-08-21T07:47:14;23.60;99.90
27128;DHT22;14660;49.008;8.390;2022-08-21T07:49:41;23.60;99.90
27128;DHT22;14660;49.008;8.390;2022-08-21T07:52:09;23.70;99.90
27128;DHT22;14660;49.008;8.390;2022-08-21T07:54:35;23.80;99.90
27128;DHT22;14660;49.008;8.390;2022-08-21T07:57:02;23.90;99.90
27128;DHT22;14660;49.008;8.390;2022-08-21T07:59:29;23.90;99.90
27128;DHT22;14660;49.008;8.390;2022-08-21T08:01:57;24.00;99.90
27128;DHT22;14660;49.008;8.390;2022-08-21T08:04:24;24.00;99.90
27128;DHT22;14660;49.008;8.390;2022-08-21T08:06:51;24.10;99.90
27128;DHT22;14660;49.008;8.390;2022-08-21T08:09:17;24.10;99.90
27128;DHT22;14660;49.008;8.390;2022-08-21T08:11:44;24.00;99.90
27128;DHT22;14660;49.008;8.390;2022-08-21T08:14:11;24.20;99.90
27128;DHT22;14660;49.008;8.390;2022-08-21T08:16:39;24.20;99.90
27128;DHT22;14660;49.008;8.390;2022-08-21T08:19:05;24.30;99.90
27128;DHT22;14660;49.008;8.390;2022-08-21T08:21:32;24.40;99.90
27128;DHT22;14660;49.008;8.390;2022-08-21T08:24:00;24.60;99.90
27128;DHT22;14660;49.008;8.390;2022-08-21T08:26:27;24.60;99.90
27128;DHT22;14660;49.008;8.390;2022-08-21T08:28:54;24.60;99.90
27128;DHT22;14660;49.008;8.390;2022-08-21T08:31:21;24.60;99.90
27128;DHT22;14660;49.008;8.390;2022-08-21T08:33:48;24.70;99.90
27128;DHT22;14660;49.008;8.390;2022-08-21T08:36:16;24.70;99.90
27128;DHT22;14660;49.008;8.390;2022-08-21T08:38:44;24.80;99.90
27128;DHT22;14660;49.008;8.390;2022-08-21T08:41:20;24.70;99.90
27128;DHT22;14660;49.008;8.390;2022-08-21T08:44:00;24.60;99.90
27128;DHT22;14660;49.008;8.390;2022-08-21T08:47:00;24.50;99.90
27128;DHT22;14660;49.008;8.390;2022-08-21T08:55:42;24.50;99.90
27128;DHT22;14660;49.008;8.390;2022-08-21T08:58:21;24.50;99.90
27128;DHT22;14660;49.008;8.390;2022-08-21T09:00:50;24.60;99.90
27128;DHT22;14660;49.008;8.390;2022-08-21T09:03:18;24.50;99.90
27128;DHT22;14660;49.008;8.390;2022-08-21T09:27:28;25.00;99.90
27128;DHT22;14660;49.008;8.390;2022-08-21T09:29:56;25.00;99.90
27128;DHT22;14660;49.008;8.390;2022-08-21T09:32:28;25.00;99.90
27128;DHT22;14660;49.008;8.390;2022-08-21T09:38:06;25.10;99.90
27128;DHT22;14660;49.008;8.390;2022-08-21T09:40:45;25.20;99.90
27128;DHT22;14660;49.008;8.390;2022-08-21T09:43:22;25.30;99.90
27128;DHT22;14660;49.008;8.390;2022-08-21T09:46:05;25.30;99.90
27128;DHT22;14660;49.008;8.390;2022-08-21T09:48:43;25.50;99.90
27128;DHT22;14660;49.008;8.390;2022-08-21T09:51:22;25.60;99.90
27128;DHT22;14660;49.008;8.390;2022-08-21T09:54:16;25.70;99.90
27128;DHT22;14660;49.008;8.390;2022-08-21T09:59:53;25.60;99.90
27128;DHT22;14660;49.008;8.390;2022-08-21T10:02:38;25.70;99.90
27128;DHT22;14660;49.008;8.390;2022-08-21T10:05:18;25.70;99.90
27128;DHT22;14660;49.008;8.390;2022-08-21T10:07:46;25.80;99.90
27128;DHT22;14660;49.008;8.390;2022-08-21T10:10:30;25.80;99.90
27128;DHT22;14660;49.008;8.390;2022-08-21T10:13:24;25.80;99.90
27128;DHT22;14660;49.008;8.390;2022-08-21T10:19:05;25.80;99.90
27128;DHT22;14660;49.008;8.390;2022-08-21T10:33:38;25.90;99.90
27128;DHT22;14660;49.008;8.390;2022-08-21T10:36:21;26.00;99.90
27128;DHT22;14660;49.008;8.390;2022-08-21T10:39:33;26.00;99.90
27128;DHT22;14660;49.008;8.390;2022-08-21T10:42:27;26.00;99.90
27128;DHT22;14660;49.008;8.390;2022-08-21T10:45:20;26.00;99.90
27128;DHT22;14660;49.008;8.390;2022-08-21T10:48:07;26.00;99.90
27128;DHT22;14660;49.008;8.390;2022-08-21T10:51:02;26.10;99.90
27128;DHT22;14660;49.008;8.390;2022-08-21T10:56:38;26.00;99.90
27128;DHT22;14660;49.008;8.390;2022-08-21T11:02:23;26.00;99.90
27128;DHT22;14660;49.008;8.390;2022-08-21T11:07:59;26.10;99.90
27128;DHT22;14660;49.008;8.390;2022-08-21T11:10:37;26.20;99.90
27128;DHT22;14660;49.008;8.390;2022-08-21T11:13:13;26.20;99.90
27128;DHT22;14660;49.008;8.390;2022-08-21T11:16:01;26.10;99.90
27128;DHT22;14660;49.008;8.390;2022-08-21T11:19:00;26.00;99.90
27128;DHT22;14660;49.008;8.390;2022-08-21T11:21:52;25.90;99.90
27128;DHT22;14660;49.008;8.390;2022-08-21T11:29:59;26.00;99.90
27128;DHT22;14660;49.008;8.390;2022-08-21T11:36:10;26.00;99.90
27128;DHT22;14660;49.008;8.390;2022-08-21T11:38:40;26.00;99.90
27128;DHT22;14660;49.008;8.390;2022-08-21T11:41:29;26.10;99.90
27128;DHT22;14660;49.008;8.390;2022-08-21T11:47:06;26.30;99.90
27128;DHT22;14660;49.008;8.390;2022-08-21T11:52:47;26.20;99.90
27128;DHT22;14660;49.008;8.390;2022-08-21T11:55:19;26.30;99.90
27128;DHT22;14660;49.008;8.390;2022-08-21T11:58:29;26.30;99.90
27128;DHT22;14660;49.008;8.390;2022-08-21T12:01:22;26.30;99.90
27128;DHT22;14660;49.008;8.390;2022-08-21T12:04:31;26.30;99.90
27128;DHT22;14660;49.008;8.390;2022-08-21T12:07:15;26.30;99.90
27128;DHT22;14660;49.008;8.390;2022-08-21T12:09:54;26.30;99.90
27128;DHT22;14660;49.008;8.390;2022-08-21T12:12:30;26.20;99.90
27128;DHT22;14660;49.008;8.390;2022-08-21T12:26:35;26.40;99.90
27128;DHT22;14660;49.008;8.390;2022-08-21T12:29:12;26.40;99.90
27128;DHT22;14660;49.008;8.390;2022-08-21T12:32:25;26.40;99.90
27128;DHT22;14660;49.008;8.390;2022-08-21T12:34:50;26.50;99.90
27128;DHT22;14660;49.008;8.390;2022-08-21T12:37:40;26.50;99.90
27128;DHT22;14660;49.008;8.390;2022-08-21T12:40:27;26.50;99.90
27128;DHT22;14660;49.008;8.390;2022-08-21T12:42:59;26.50;99.90
27128;DHT22;14660;49.008;8.390;2022-08-21T12:45:42;26.40;99.90
27128;DHT22;14660;49.008;8.390;2022-08-21T12:50:57;26.40;99.90
27128;DHT22;14660;49.008;8.390;2022-08-21T12:53:50;26.50;99.90
27128;DHT22;14660;49.008;8.390;2022-08-21T12:56:23;26.50;99.90
27128;DHT22;14660;49.008;8.390;2022-08-21T12:59:04;26.50;99.90
27128;DHT22;14660;49.008;8.390;2022-08-21T13:01:51;26.50;99.90
27128;DHT22;14660;49.008;8.390;2022-08-21T13:04:42;26.70;99.90
27128;DHT22;14660;49.008;8.390;2022-08-21T13:07:11;26.80;99.90
27128;DHT22;14660;49.008;8.390;2022-08-21T13:09:50;26.80;99.90
27128;DHT22;14660;49.008;8.390;2022-08-21T13:12:19;26.80;99.90
27128;DHT22;14660;49.008;8.390;2022-08-21T13:14:47;26.80;99.90
27128;DHT22;14660;49.008;8.390;2022-08-21T13:17:20;26.80;99.90
27128;DHT22;14660;49.008;8.390;2022-08-21T13:20:06;26.80;99.90
27128;DHT22;14660;49.008;8.390;2022-08-21T13:22:41;26.70;99.80
27128;DHT22;14660;49.008;8.390;2022-08-21T13:25:13;26.70;99.80
27128;DHT22;14660;49.008;8.390;2022-08-21T13:27:45;26.70;99.90
27128;DHT22;14660;49.008;8.390;2022-08-21T13:30:23;26.70;99.90
27128;DHT22;14660;49.008;8.390;2022-08-21T13:32:54;26.70;99.90
27128;DHT22;14660;49.008;8.390;2022-08-21T13:35:26;26.70;99.90
27128;DHT22;14660;49.008;8.390;2022-08-21T13:37:54;26.70;99.90
27128;DHT22;14660;49.008;8.390;2022-08-21T13:43:25;26.70;99.90
27128;DHT22;14660;49.008;8.390;2022-08-21T13:45:55;26.70;99.90
27128;DHT22;14660;49.008;8.390;2022-08-21T13:48:26;26.70;99.90
27128;DHT22;14660;49.008;8.390;2022-08-21T13:50:54;26.80;99.90
27128;DHT22;14660;49.008;8.390;2022-08-21T13:59:07;26.90;99.90
27128;DHT22;14660;49.008;8.390;2022-08-21T14:01:54;26.80;99.90
27128;DHT22;14660;49.008;8.390;2022-08-21T14:04:34;26.80;99.90
27128;DHT22;14660;49.008;8.390;2022-08-21T14:07:03;26.80;99.90
27128;DHT22;14660;49.008;8.390;2022-08-21T14:09:43;26.80;99.90
27128;DHT22;14660;49.008;8.390;2022-08-21T14:14:51;27.00;99.90
27128;DHT22;14660;49.008;8.390;2022-08-21T14:17:38;27.00;99.90
27128;DHT22;14660;49.008;8.390;2022-08-21T14:20:07;26.90;99.90
27128;DHT22;14660;49.008;8.390;2022-08-21T14:22:54;26.90;99.90
27128;DHT22;14660;49.008;8.390;2022-08-21T14:25:40;26.90;99.90
27128;DHT22;14660;49.008;8.390;2022-08-21T14:30:52;26.90;99.80
27128;DHT22;14660;49.008;8.390;2022-08-21T14:33:29;27.00;98.70
27128;DHT22;14660;49.008;8.390;2022-08-21T14:35:58;27.00;98.60
27128;DHT22;14660;49.008;8.390;2022-08-21T14:38:27;27.10;98.00
27128;DHT22;14660;49.008;8.390;2022-08-21T14:40:57;27.20;98.00
27128;DHT22;14660;49.008;8.390;2022-08-21T14:43:26;27.20;98.40
27128;DHT22;14660;49.008;8.390;2022-08-21T14:45:54;27.10;98.80
27128;DHT22;14660;49.008;8.390;2022-08-21T14:48:21;27.10;98.80
27128;DHT22;14660;49.008;8.390;2022-08-21T14:50:48;27.10;98.60
27128;DHT22;14660;49.008;8.390;2022-08-21T14:53:16;27.10;98.40
27128;DHT22;14660;49.008;8.390;2022-08-21T14:55:43;27.10;98.40
27128;DHT22;14660;49.008;8.390;2022-08-21T14:58:29;27.10;97.30
27128;DHT22;14660;49.008;8.390;2022-08-21T15:00:56;27.10;97.70
27128;DHT22;14660;49.008;8.390;2022-08-21T15:03:25;27.10;97.70
27128;DHT22;14660;49.008;8.390;2022-08-21T15:05:52;27.00;98.00
27128;DHT22;14660;49.008;8.390;2022-08-21T15:08:19;27.00;98.00
27128;DHT22;14660;49.008;8.390;2022-08-21T15:10:48;27.10;98.30
27128;DHT22;14660;49.008;8.390;2022-08-21T15:13:15;27.00;98.10
27128;DHT22;14660;49.008;8.390;2022-08-21T15:15:44;27.00;97.70
27128;DHT22;14660;49.008;8.390;2022-08-21T15:18:11;26.90;98.10
27128;DHT22;14660;49.008;8.390;2022-08-21T15:20:38;26.90;98.10
27128;DHT22;14660;49.008;8.390;2022-08-21T15:23:06;27.00;98.00
27128;DHT22;14660;49.008;8.390;2022-08-21T15:25:34;27.00;98.00
27128;DHT22;14660;49.008;8.390;2022-08-21T15:28:02;27.10;98.00
27128;DHT22;14660;49.008;8.390;2022-08-21T15:30:30;27.10;98.60
27128;DHT22;14660;49.008;8.390;2022-08-21T15:32:57;27.10;98.00
27128;DHT22;14660;49.008;8.390;2022-08-21T15:35:24;27.10;98.60
27128;DHT22;14660;49.008;8.390;2022-08-21T15:37:51;27.10;98.10
27128;DHT22;14660;49.008;8.390;2022-08-21T15:40:18;27.10;97.90
27128;DHT22;14660;49.008;8.390;2022-08-21T15:42:45;27.00;97.10
27128;DHT22;14660;49.008;8.390;2022-08-21T15:45:13;27.00;96.60
27128;DHT22;14660;49.008;8.390;2022-08-21T15:47:44;27.00;96.90
27128;DHT22;14660;49.008;8.390;2022-08-21T15:50:12;27.10;97.10
27128;DHT22;14660;49.008;8.390;2022-08-21T15:52:40;27.10;97.00
27128;DHT22;14660;49.008;8.390;2022-08-21T15:55:07;27.10;96.90
27128;DHT22;14660;49.008;8.390;2022-08-21T15:57:36;27.00;96.50
27128;DHT22;14660;49.008;8.390;2022-08-21T16:00:12;27.10;96.20
27128;DHT22;14660;49.008;8.390;2022-08-21T16:02:44;27.10;95.90
27128;DHT22;14660;49.008;8.390;2022-08-21T16:05:13;27.10;95.80
27128;DHT22;14660;49.008;8.390;2022-08-21T16:07:43;27.20;95.50
27128;DHT22;14660;49.008;8.390;2022-08-21T16:10:12;27.10;95.70
27128;DHT22;14660;49.008;8.390;2022-08-21T16:12:42;27.00;95.80
27128;DHT22;14660;49.008;8.390;2022-08-21T16:15:11;27.00;96.00
27128;DHT22;14660;49.008;8.390;2022-08-21T16:17:40;27.10;95.00
27128;DHT22;14660;49.008;8.390;2022-08-21T16:20:11;27.00;94.90
27128;DHT22;14660;49.008;8.390;2022-08-21T16:22:38;27.00;94.90
27128;DHT22;14660;49.008;8.390;2022-08-21T16:25:06;26.90;94.60
27128;DHT22;14660;49.008;8.390;2022-08-21T16:27:34;26.90;94.80
27128;DHT22;14660;49.008;8.390;2022-08-21T16:30:05;26.80;94.50
27128;DHT22;14660;49.008;8.390;2022-08-21T16:32:32;26.80;94.50
27128;DHT22;14660;49.008;8.390;2022-08-21T16:35:02;26.80;94.70
27128;DHT22;14660;49.008;8.390;2022-08-21T16:37:30;26.80;94.60
27128;DHT22;14660;49.008;8.390;2022-08-21T16:39:58;26.70;95.30
27128;DHT22;14660;49.008;8.390;2022-08-21T16:42:25;26.70;95.90
27128;DHT22;14660;49.008;8.390;2022-08-21T16:44:53;26.60;99.90
27128;DHT22;14660;49.008;8.390;2022-08-21T16:47:21;26.60;98.50
27128;DHT22;14660;49.008;8.390;2022-08-21T16:49:48;26.50;97.90
27128;DHT22;14660;49.008;8.390;2022-08-21T16:52:17;26.50;98.20
27128;DHT22;14660;49.008;8.390;2022-08-21T16:54:44;26.40;97.60
27128;DHT22;14660;49.008;8.390;2022-08-21T16:57:11;26.40;96.90
27128;DHT22;14660;49.008;8.390;2022-08-21T16:59:38;26.30;96.30
27128;DHT22;14660;49.008;8.390;2022-08-21T17:02:18;26.30;96.80
27128;DHT22;14660;49.008;8.390;2022-08-21T17:04:47;26.30;98.00
27128;DHT22;14660;49.008;8.390;2022-08-21T17:07:14;26.20;97.40
27128;DHT22;14660;49.008;8.390;2022-08-21T17:09:41;26.20;95.90
27128;DHT22;14660;49.008;8.390;2022-08-21T17:12:08;26.20;95.70
27128;DHT22;14660;49.008;8.390;2022-08-21T17:14:35;26.20;95.30
27128;DHT22;14660;49.008;8.390;2022-08-21T17:17:05;26.10;95.80
27128;DHT22;14660;49.008;8.390;2022-08-21T17:19:33;26.10;95.50
27128;DHT22;14660;49.008;8.390;2022-08-21T17:22:00;26.00;95.60
27128;DHT22;14660;49.008;8.390;2022-08-21T17:24:27;26.00;97.00
27128;DHT22;14660;49.008;8.390;2022-08-21T17:26:55;26.00;96.30
27128;DHT22;14660;49.008;8.390;2022-08-21T17:29:35;25.90;96.00
27128;DHT22;14660;49.008;8.390;2022-08-21T17:32:08;25.80;95.80
27128;DHT22;14660;49.008;8.390;2022-08-21T17:34:37;25.70;95.70
27128;DHT22;14660;49.008;8.390;2022-08-21T17:37:05;25.70;96.10